createdAt,value
2023-04-24T00:01:10.378Z,0.20
2023-04-24T00:03:38.221Z,0.30
2023-04-24T00:06:08.015Z,0.28
2023-04-24T00:08:35.860Z,0.30
2023-04-24T00:11:02.864Z,0.10
2023-04-24T00:13:29.826Z,0.30
2023-04-24T00:15:57.364Z,0.20
2023-04-24T00:18:24.017Z,0.20
2023-04-24T00:20:50.799Z,0.15
2023-04-24T00:23:17.418Z,0.20
2023-04-24T00:25:44.209Z,0.22
2023-04-24T00:28:11.305Z,0.20
2023-04-24T00:30:37.849Z,0.17
2023-04-24T00:33:05.384Z,0.15
2023-04-24T00:35:32.425Z,0.20
2023-04-24T00:37:59.031Z,0.20
2023-04-24T00:40:25.885Z,0.20
2023-04-24T00:42:52.715Z,0.10
2023-04-24T00:45:19.428Z,0.10
2023-04-24T00:47:46.797Z,0.10
2023-04-24T00:50:16.103Z,0.20
2023-04-24T00:52:43.059Z,0.10
2023-04-24T00:55:10.356Z,0.20
2023-04-24T00:57:37.939Z,0.10
2023-04-24T01:00:06.981Z,0.20
2023-04-24T01:02:35.595Z,0.22
2023-04-24T01:05:02.675Z,0.20
2023-04-24T01:07:29.947Z,0.30
2023-04-24T01:09:57.392Z,0.20
2023-04-24T01:12:25.562Z,0.10
2023-04-24T01:14:52.185Z,0.20
2023-04-24T01:17:18.907Z,0.20
2023-04-24T01:19:45.946Z,0.20
2023-04-24T01:22:15.365Z,0.10
2023-04-24T01:24:43.495Z,0.20
2023-04-24T01:27:16.061Z,0.17
2023-04-24T01:29:45.858Z,0.15
2023-04-24T01:32:13.320Z,0.30
2023-04-24T01:34:41.524Z,0.20
2023-04-24T01:37:08.377Z,0.20
2023-04-24T01:39:35.299Z,0.25
2023-04-24T01:42:03.475Z,0.20
2023-04-24T01:44:30.234Z,0.20
2023-04-24T01:46:57.218Z,0.15
2023-04-24T01:49:24.484Z,0.10
2023-04-24T01:51:51.063Z,0.20
2023-04-24T01:54:17.766Z,0.10
2023-04-24T01:56:44.833Z,0.28
2023-04-24T01:59:12.851Z,0.10
2023-04-24T02:01:40.460Z,0.20
2023-04-24T02:04:08.780Z,0.20
2023-04-24T02:06:36.247Z,0.20
2023-04-24T02:09:04.236Z,0.20
2023-04-24T02:11:31.066Z,0.28
2023-04-24T02:13:58.617Z,0.20
2023-04-24T02:16:25.797Z,0.30
2023-04-24T02:18:52.684Z,0.17
2023-04-24T02:21:19.265Z,0.10
2023-04-24T02:23:46.234Z,0.13
2023-04-24T02:26:13.566Z,0.10
2023-04-24T02:28:40.201Z,0.40
2023-04-24T02:31:07.424Z,0.10
2023-04-24T02:33:34.428Z,0.20
2023-04-24T02:36:01.192Z,0.10
2023-04-24T02:38:28.017Z,0.13
2023-04-24T02:40:54.729Z,0.20
2023-04-24T02:43:21.689Z,0.20
2023-04-24T02:45:48.569Z,0.10
2023-04-24T02:48:15.122Z,0.20
2023-04-24T02:50:41.962Z,0.10
2023-04-24T02:53:08.537Z,0.20
2023-04-24T02:55:35.394Z,0.15
2023-04-24T02:58:02.480Z,0.30
2023-04-24T03:00:29.064Z,0.20
2023-04-24T03:02:55.884Z,0.22
2023-04-24T03:05:22.711Z,0.20
2023-04-24T03:07:49.425Z,0.22
2023-04-24T03:10:16.099Z,0.17
2023-04-24T03:12:42.672Z,0.20
2023-04-24T03:15:10.128Z,0.30
2023-04-24T03:17:37.929Z,0.30
2023-04-24T03:20:06.532Z,0.20
2023-04-24T03:22:33.968Z,0.22
2023-04-24T03:25:01.904Z,0.20
2023-04-24T03:27:28.566Z,0.20
2023-04-24T03:30:04.932Z,0.20
2023-04-24T03:32:52.485Z,0.20
2023-04-24T03:37:51.783Z,0.10
2023-04-24T03:40:47.750Z,0.20
2023-04-24T03:43:28.490Z,0.15
2023-04-24T03:45:57.676Z,0.20
2023-04-24T03:48:24.790Z,0.20
2023-04-24T03:50:51.785Z,0.28
2023-04-24T03:53:18.610Z,0.20
2023-04-24T03:55:45.355Z,0.10
2023-04-24T03:58:12.389Z,0.20
2023-04-24T04:00:41.298Z,0.22
2023-04-24T04:03:40.255Z,0.10
2023-04-24T04:06:07.721Z,0.20
2023-04-24T04:08:34.677Z,0.20
2023-04-24T04:11:02.900Z,0.20
2023-04-24T04:13:31.969Z,0.28
2023-04-24T04:15:58.710Z,0.20
2023-04-24T04:18:25.674Z,0.28
2023-04-24T04:20:52.912Z,0.20
2023-04-24T04:23:19.678Z,0.10
2023-04-24T04:26:07.135Z,0.20
2023-04-24T04:28:49.930Z,0.22
2023-04-24T04:31:16.872Z,0.38
2023-04-24T04:33:43.606Z,0.20
2023-04-24T04:36:10.909Z,1.10
2023-04-24T04:38:44.029Z,0.57
2023-04-24T04:41:49.878Z,0.70
2023-04-24T04:44:18.447Z,0.95
2023-04-24T04:46:45.542Z,0.70
2023-04-24T04:49:22.709Z,1.10
2023-04-24T04:51:49.471Z,0.90
2023-04-24T04:54:16.897Z,0.20
2023-04-24T04:56:44.041Z,0.20
2023-04-24T04:59:10.832Z,0.10
2023-04-24T05:01:39.332Z,0.20
2023-04-24T05:04:07.831Z,0.35
2023-04-24T05:06:34.725Z,0.20
2023-04-24T05:09:01.527Z,0.22
2023-04-24T05:11:35.490Z,0.20
2023-04-24T05:14:03.117Z,0.45
2023-04-24T05:16:35.617Z,0.20
2023-04-24T05:19:02.449Z,0.15
2023-04-24T05:21:34.279Z,0.30
2023-04-24T05:24:01.062Z,0.45
2023-04-24T05:26:46.972Z,0.50
2023-04-24T05:29:16.083Z,0.32
2023-04-24T05:31:45.422Z,0.50
2023-04-24T05:34:12.500Z,2.20
2023-04-24T05:36:43.658Z,1.50
2023-04-24T05:39:10.652Z,0.60
2023-04-24T05:41:37.460Z,0.38
2023-04-24T05:44:04.399Z,0.30
2023-04-24T05:46:31.128Z,0.20
2023-04-24T05:48:57.813Z,0.28
2023-04-24T05:51:25.007Z,0.10
2023-04-24T05:53:51.789Z,0.20
2023-04-24T05:56:18.846Z,0.30
2023-04-24T05:58:46.674Z,0.28
2023-04-24T06:01:17.576Z,0.10
2023-04-24T06:03:48.408Z,0.20
2023-04-24T06:06:15.096Z,0.10
2023-04-24T06:08:43.561Z,0.22
2023-04-24T06:11:10.770Z,0.10
2023-04-24T06:13:38.775Z,0.17
2023-04-24T06:16:44.093Z,0.15
2023-04-24T06:21:52.340Z,0.20
2023-04-24T06:24:18.919Z,0.57
2023-04-24T06:26:45.544Z,0.20
2023-04-24T06:29:14.965Z,0.20
2023-04-24T06:31:41.823Z,0.30
2023-04-24T06:34:08.456Z,0.20
2023-04-24T06:36:36.776Z,0.17
2023-04-24T06:39:03.384Z,0.55
2023-04-24T06:41:30.347Z,0.20
2023-04-24T06:43:57.028Z,0.30
2023-04-24T06:46:26.945Z,0.38
2023-04-24T06:48:56.957Z,1.05
2023-04-24T06:51:24.921Z,0.20
2023-04-24T06:53:52.988Z,0.10
2023-04-24T06:56:19.728Z,0.30
2023-04-24T06:58:46.304Z,0.68
2023-04-24T07:01:13.086Z,0.35
2023-04-24T07:03:40.082Z,0.20
2023-04-24T07:06:07.699Z,0.10
2023-04-24T07:08:34.401Z,0.20
2023-04-24T07:11:01.583Z,0.20
2023-04-24T07:13:28.340Z,0.15
2023-04-24T07:15:56.149Z,0.10
2023-04-24T07:18:23.381Z,0.10
2023-04-24T07:20:52.905Z,0.20
2023-04-24T07:23:20.928Z,0.28
2023-04-24T07:25:47.897Z,0.20
2023-04-24T07:28:14.682Z,0.10
2023-04-24T07:30:41.339Z,0.17
2023-04-24T07:33:08.229Z,0.10
2023-04-24T07:35:35.743Z,0.10
2023-04-24T07:38:02.850Z,0.20
2023-04-24T07:40:29.616Z,0.35
2023-04-24T07:42:56.211Z,0.20
2023-04-24T07:45:24.418Z,0.10
2023-04-24T07:47:51.976Z,0.20
2023-04-24T07:50:18.830Z,0.10
2023-04-24T07:52:45.577Z,0.10
2023-04-24T07:55:15.081Z,0.10
2023-04-24T07:57:41.789Z,0.30
2023-04-24T08:00:10.294Z,0.20
2023-04-24T08:02:40.243Z,0.15
2023-04-24T08:05:07.991Z,0.43
2023-04-24T08:07:36.490Z,0.08
2023-04-24T08:10:03.685Z,0.20
2023-04-24T08:12:30.685Z,0.28
2023-04-24T08:14:57.296Z,0.28
2023-04-24T08:17:25.417Z,0.30
2023-04-24T08:19:53.383Z,0.30
2023-04-24T08:22:20.316Z,0.30
2023-04-24T08:24:46.938Z,0.35
2023-04-24T08:27:13.565Z,0.32
2023-04-24T08:29:40.396Z,0.38
2023-04-24T08:32:07.806Z,0.40
2023-04-24T08:34:34.530Z,0.40
2023-04-24T08:37:01.238Z,0.40
2023-04-24T08:39:27.958Z,0.30
2023-04-24T08:41:57.316Z,0.55
2023-04-24T08:44:24.065Z,0.55
2023-04-24T08:46:52.423Z,0.57
2023-04-24T08:49:20.081Z,0.40
2023-04-24T08:51:48.574Z,0.40
2023-04-24T08:54:15.512Z,0.85
2023-04-24T08:56:45.761Z,0.50
2023-04-24T08:59:13.594Z,0.40
2023-04-24T09:01:41.888Z,1.17
2023-04-24T09:04:14.377Z,0.38
2023-04-24T09:06:41.872Z,0.65
2023-04-24T09:09:12.548Z,0.47
2023-04-24T09:11:39.702Z,0.40
2023-04-24T09:14:07.698Z,0.40
2023-04-24T09:16:36.537Z,0.30
2023-04-24T09:19:04.226Z,0.40
2023-04-24T09:21:35.381Z,0.40
2023-04-24T09:24:08.224Z,0.47
2023-04-24T09:26:38.055Z,0.25
2023-04-24T09:29:05.531Z,0.20
2023-04-24T09:31:32.867Z,0.50
2023-04-24T09:34:02.875Z,0.73
2023-04-24T09:36:38.227Z,0.47
2023-04-24T09:39:07.113Z,0.40
2023-04-24T09:41:34.124Z,0.38
2023-04-24T09:44:23.492Z,0.35
2023-04-24T09:46:59.817Z,0.47
2023-04-24T09:49:31.477Z,0.40
2023-04-24T09:52:12.207Z,0.50
2023-04-24T09:54:39.576Z,0.50
2023-04-24T09:57:09.612Z,0.40
2023-04-24T09:59:37.556Z,0.40
2023-04-24T10:02:18.351Z,0.47
2023-04-24T10:04:56.954Z,0.70
2023-04-24T10:07:27.304Z,0.40
2023-04-24T10:09:54.867Z,0.60
2023-04-24T10:12:22.436Z,0.32
2023-04-24T10:14:50.957Z,0.30
2023-04-24T10:17:18.567Z,0.40
2023-04-24T10:19:47.118Z,0.40
2023-04-24T10:22:16.686Z,0.40
2023-04-24T10:24:44.991Z,0.30
2023-04-24T10:27:13.777Z,0.10
2023-04-24T10:29:42.072Z,0.10
2023-04-24T10:32:10.760Z,0.20
2023-04-24T10:34:37.716Z,0.28
2023-04-24T10:37:10.784Z,0.17
2023-04-24T10:39:38.463Z,0.30
2023-04-24T10:42:16.671Z,0.25
2023-04-24T10:44:43.678Z,0.40
2023-04-24T10:47:16.489Z,0.30
2023-04-24T10:49:43.876Z,0.20
2023-04-24T10:52:10.581Z,0.10
2023-04-24T10:54:47.104Z,0.20
2023-04-24T10:57:23.024Z,0.35
2023-04-24T10:59:52.531Z,0.20
2023-04-24T11:02:19.490Z,0.20
2023-04-24T11:04:47.377Z,0.20
2023-04-24T11:07:14.469Z,0.32
2023-04-24T11:09:44.038Z,0.20
2023-04-24T11:12:14.990Z,0.20
2023-04-24T11:14:57.420Z,0.43
2023-04-24T11:17:39.209Z,0.30
2023-04-24T11:20:27.279Z,0.38
2023-04-24T11:22:56.693Z,0.13
2023-04-24T11:25:23.936Z,0.30
2023-04-24T11:27:51.289Z,0.25
2023-04-24T11:30:21.540Z,0.35
2023-04-24T11:32:51.359Z,0.40
2023-04-24T11:35:19.501Z,0.30
2023-04-24T11:38:07.853Z,0.50
2023-04-24T11:40:35.148Z,0.70
2023-04-24T11:43:02.087Z,0.45
2023-04-24T11:45:30.952Z,0.40
2023-04-24T11:47:59.774Z,0.50
2023-04-24T11:50:28.757Z,0.60
2023-04-24T11:52:57.009Z,0.40
2023-04-24T11:55:23.942Z,0.70
2023-04-24T11:57:53.867Z,0.30
2023-04-24T12:00:23.320Z,0.40
2023-04-24T12:02:51.401Z,0.20
2023-04-24T12:05:22.249Z,0.50
2023-04-24T12:07:49.567Z,0.40
2023-04-24T12:10:23.933Z,0.43
2023-04-24T12:12:52.856Z,0.40
2023-04-24T12:15:21.388Z,0.70
2023-04-24T12:17:49.110Z,0.68
2023-04-24T12:20:16.170Z,0.50
2023-04-24T12:22:51.401Z,0.50
2023-04-24T12:25:20.286Z,0.50
2023-04-24T12:27:48.151Z,0.63
2023-04-24T12:30:17.298Z,0.75
2023-04-24T12:32:48.605Z,0.60
2023-04-24T12:35:21.688Z,0.57
2023-04-24T12:37:48.464Z,0.45
2023-04-24T12:40:16.027Z,0.35
2023-04-24T12:42:45.652Z,0.63
2023-04-24T12:45:13.150Z,0.75
2023-04-24T12:47:41.072Z,0.60
2023-04-24T12:50:12.886Z,0.50
2023-04-24T12:52:40.377Z,0.95
2023-04-24T12:55:09.082Z,1.08
2023-04-24T12:57:37.153Z,0.98
2023-04-24T13:00:05.697Z,0.65
2023-04-24T13:02:32.611Z,0.50
2023-04-24T13:05:00.092Z,0.60
2023-04-24T13:07:27.357Z,0.50
2023-04-24T13:09:55.687Z,0.63
2023-04-24T13:12:22.559Z,1.00
2023-04-24T13:14:49.218Z,0.80
2023-04-24T13:17:16.359Z,0.65
2023-04-24T13:19:44.925Z,0.65
2023-04-24T13:22:13.001Z,0.80
2023-04-24T13:24:42.036Z,0.57
2023-04-24T13:27:09.981Z,0.60
2023-04-24T13:29:37.652Z,0.70
2023-04-24T13:32:04.692Z,0.70
2023-04-24T13:34:31.940Z,0.90
2023-04-24T13:36:59.552Z,0.47
2023-04-24T13:39:27.024Z,0.40
2023-04-24T13:41:54.581Z,0.60
2023-04-24T13:44:22.412Z,0.40
2023-04-24T13:46:50.830Z,0.60
2023-04-24T13:49:17.741Z,0.43
2023-04-24T13:51:45.006Z,0.47
2023-04-24T13:54:11.800Z,0.60
2023-04-24T13:56:38.416Z,0.60
2023-04-24T13:59:05.774Z,0.45
2023-04-24T14:01:32.418Z,0.57
2023-04-24T14:03:59.152Z,0.30
2023-04-24T14:06:25.847Z,0.35
2023-04-24T14:08:53.301Z,0.60
2023-04-24T14:11:19.992Z,0.32
2023-04-24T14:13:47.148Z,0.40
2023-04-24T14:16:14.285Z,0.50
2023-04-24T14:18:41.013Z,0.30
2023-04-24T14:21:07.812Z,0.55
2023-04-24T14:23:34.435Z,0.35
2023-04-24T14:26:01.352Z,0.38
2023-04-24T14:28:28.004Z,0.75
2023-04-24T14:30:54.717Z,0.40
2023-04-24T14:33:21.485Z,0.40
2023-04-24T14:35:48.659Z,0.57
2023-04-24T14:38:16.250Z,0.35
2023-04-24T14:43:12.788Z,0.52
2023-04-24T14:45:41.130Z,0.40
2023-04-24T14:48:09.284Z,0.40
2023-04-24T14:50:36.511Z,0.63
2023-04-24T14:53:03.283Z,0.40
2023-04-24T14:55:30.019Z,0.50
2023-04-24T14:57:56.617Z,0.32
2023-04-24T15:00:26.535Z,0.50
2023-04-24T15:02:53.464Z,0.40
2023-04-24T15:05:20.915Z,0.47
2023-04-24T15:07:47.587Z,0.40
2023-04-24T15:10:14.403Z,0.45
2023-04-24T15:12:41.250Z,0.40
2023-04-24T15:15:09.295Z,0.50
2023-04-24T15:17:35.981Z,0.47
2023-04-24T15:20:03.952Z,0.52
2023-04-24T15:22:30.726Z,0.80
2023-04-24T15:24:57.415Z,0.60
2023-04-24T15:27:24.133Z,0.50
2023-04-24T15:29:50.931Z,0.52
2023-04-24T15:32:17.787Z,0.50
2023-04-24T15:34:45.721Z,0.32
2023-04-24T15:37:12.643Z,0.55
2023-04-24T15:39:39.262Z,0.38
2023-04-24T15:42:06.068Z,0.50
2023-04-24T15:44:32.567Z,0.40
2023-04-24T15:47:01.679Z,0.50
2023-04-24T15:49:28.430Z,0.50
2023-04-24T15:51:55.351Z,0.55
2023-04-24T15:54:22.037Z,0.50
2023-04-24T15:56:50.935Z,0.35
2023-04-24T15:59:18.671Z,0.50
2023-04-24T16:01:45.249Z,0.30
2023-04-24T16:04:12.216Z,0.50
2023-04-24T16:06:39.072Z,0.40
2023-04-24T16:09:05.911Z,0.30
2023-04-24T16:11:36.516Z,0.40
2023-04-24T16:14:03.094Z,0.40
2023-04-24T16:16:29.626Z,0.35
2023-04-24T16:18:56.488Z,0.38
2023-04-24T16:21:23.214Z,0.40
2023-04-24T16:23:50.337Z,0.30
2023-04-24T16:26:17.050Z,0.22
2023-04-24T16:28:43.731Z,0.50
2023-04-24T16:31:10.535Z,0.30
2023-04-24T16:33:37.318Z,0.35
2023-04-24T16:36:05.858Z,0.40
2023-04-24T16:38:34.137Z,0.20
2023-04-24T16:41:00.769Z,0.20
2023-04-24T16:43:27.546Z,0.20
2023-04-24T16:45:54.508Z,0.50
2023-04-24T16:48:22.252Z,0.28
2023-04-24T16:50:48.869Z,0.10
2023-04-24T16:53:15.430Z,0.40
2023-04-24T16:55:42.301Z,0.25
2023-04-24T16:58:08.823Z,0.40
2023-04-24T17:00:36.880Z,0.35
2023-04-24T17:03:03.557Z,0.30
2023-04-24T17:05:30.248Z,0.40
2023-04-24T17:07:57.091Z,0.40
2023-04-24T17:10:23.762Z,0.30
2023-04-24T17:12:51.153Z,0.30
2023-04-24T17:15:17.705Z,0.20
2023-04-24T17:17:46.033Z,0.20
2023-04-24T17:20:21.940Z,0.17
2023-04-24T17:22:49.840Z,0.10
2023-04-24T17:25:16.918Z,0.40
2023-04-24T17:27:44.866Z,0.50
2023-04-24T17:30:12.050Z,0.40
2023-04-24T17:32:38.888Z,0.30
2023-04-24T17:35:06.201Z,0.40
2023-04-24T17:37:33.776Z,0.32
2023-04-24T17:40:00.543Z,0.28
2023-04-24T17:42:27.226Z,0.20
2023-04-24T17:44:53.840Z,0.22
2023-04-24T17:47:22.294Z,0.30
2023-04-24T17:49:48.980Z,0.43
2023-04-24T17:52:17.625Z,0.30
2023-04-24T17:54:44.506Z,0.30
2023-04-24T17:57:11.428Z,0.30
2023-04-24T17:59:38.103Z,0.20
2023-04-24T18:02:04.739Z,0.30
2023-04-24T18:04:31.477Z,0.10
2023-04-24T18:06:58.412Z,0.40
2023-04-24T18:09:24.928Z,0.30
2023-04-24T18:11:51.630Z,0.30
2023-04-24T18:14:18.597Z,0.25
2023-04-24T18:16:45.365Z,0.20
2023-04-24T18:19:12.015Z,0.25
2023-04-24T18:21:38.782Z,0.30
2023-04-24T18:24:05.550Z,0.30
2023-04-24T18:26:32.322Z,0.50
2023-04-24T18:28:58.954Z,0.32
2023-04-24T18:31:25.942Z,0.40
2023-04-24T18:33:54.090Z,0.50
2023-04-24T18:36:21.308Z,0.30
2023-04-24T18:38:48.214Z,0.30
2023-04-24T18:41:15.391Z,0.40
2023-04-24T18:43:42.028Z,0.30
2023-04-24T18:46:08.869Z,0.40
2023-04-24T18:48:35.717Z,0.50
2023-04-24T18:51:02.272Z,0.50
2023-04-24T18:53:28.958Z,0.40
2023-04-24T18:55:55.516Z,0.50
2023-04-24T18:58:22.039Z,0.40
2023-04-24T19:00:48.914Z,0.38
2023-04-24T19:03:15.710Z,0.50
2023-04-24T19:05:42.601Z,0.40
2023-04-24T19:08:09.123Z,0.60
2023-04-24T19:10:36.782Z,0.47
2023-04-24T19:13:03.824Z,0.50
2023-04-24T19:15:30.727Z,0.90
2023-04-24T19:17:57.707Z,0.95
2023-04-24T19:20:26.027Z,0.88
2023-04-24T19:22:53.004Z,0.80
2023-04-24T19:25:19.893Z,0.85
2023-04-24T19:27:46.579Z,0.50
2023-04-24T19:30:13.365Z,0.90
2023-04-24T19:32:39.930Z,0.60
2023-04-24T19:35:07.311Z,0.88
2023-04-24T19:37:35.249Z,1.27
2023-04-24T19:40:02.748Z,1.25
2023-04-24T19:42:42.458Z,0.73
2023-04-24T19:45:11.733Z,1.00
2023-04-24T19:47:38.764Z,0.70
2023-04-24T19:50:06.330Z,0.50
2023-04-24T19:52:32.976Z,0.65
2023-04-24T19:54:59.693Z,0.55
2023-04-24T19:57:26.627Z,0.70
2023-04-24T19:59:53.166Z,0.60
2023-04-24T20:02:20.214Z,0.95
2023-04-24T20:04:47.083Z,0.55
2023-04-24T20:07:14.068Z,0.70
2023-04-24T20:09:40.635Z,0.60
2023-04-24T20:12:07.448Z,0.60
2023-04-24T20:14:34.188Z,0.70
2023-04-24T20:17:01.022Z,0.80
2023-04-24T20:19:27.646Z,0.80
2023-04-24T20:21:54.782Z,0.50
2023-04-24T20:24:21.339Z,0.65
2023-04-24T20:26:49.935Z,0.82
2023-04-24T20:29:16.587Z,0.90
2023-04-24T20:31:43.273Z,0.70
2023-04-24T20:34:10.461Z,0.50
2023-04-24T20:36:37.210Z,0.63
2023-04-24T20:39:06.547Z,0.60
2023-04-24T20:41:34.077Z,0.60
2023-04-24T20:44:01.186Z,0.57
2023-04-24T20:46:28.200Z,0.75
2023-04-24T20:48:54.863Z,0.47
2023-04-24T20:51:21.596Z,0.60
2023-04-24T20:53:49.444Z,0.70
2023-04-24T20:56:16.703Z,0.73
2023-04-24T20:58:47.103Z,0.80
2023-04-24T21:01:14.959Z,0.80
2023-04-24T21:03:42.537Z,1.50
2023-04-24T21:06:09.775Z,2.25
2023-04-24T21:08:37.798Z,2.10
2023-04-24T21:11:04.662Z,1.40
2023-04-24T21:13:31.452Z,1.00
2023-04-24T21:15:58.321Z,0.80
2023-04-24T21:18:26.167Z,0.50
2023-04-24T21:20:53.601Z,0.50
2023-04-24T21:23:20.705Z,0.80
2023-04-24T21:25:47.668Z,1.08
2023-04-24T21:28:14.628Z,0.70
2023-04-24T21:30:41.441Z,0.60
2023-04-24T21:33:08.168Z,0.93
2023-04-24T21:35:35.296Z,0.73
2023-04-24T21:38:01.830Z,0.80
2023-04-24T21:40:29.127Z,0.80
2023-04-24T21:42:56.161Z,0.85
2023-04-24T21:45:23.062Z,0.77
2023-04-24T21:47:49.736Z,0.90
2023-04-24T21:50:16.329Z,1.08
2023-04-24T21:52:43.406Z,0.85
2023-04-24T21:55:10.027Z,0.80
2023-04-24T21:57:36.604Z,0.82
2023-04-24T22:00:06.187Z,0.95
2023-04-24T22:02:32.785Z,0.90
2023-04-24T22:05:03.323Z,0.80
2023-04-24T22:07:30.516Z,0.57
2023-04-24T22:09:57.149Z,0.82
2023-04-24T22:12:23.806Z,0.95
2023-04-24T22:14:50.741Z,1.30
2023-04-24T22:17:17.418Z,1.20
2023-04-24T22:19:44.136Z,0.75
2023-04-24T22:22:10.892Z,0.65
2023-04-24T22:24:37.540Z,1.05
2023-04-24T22:27:04.264Z,0.88
2023-04-24T22:29:31.032Z,1.00
2023-04-24T22:31:57.766Z,0.70
2023-04-24T22:34:24.476Z,1.00
2023-04-24T22:36:51.207Z,0.80
2023-04-24T22:39:17.838Z,0.70
2023-04-24T22:41:44.706Z,0.85
2023-04-24T22:44:11.397Z,0.90
2023-04-24T22:46:38.311Z,0.82
2023-04-24T22:49:05.231Z,0.80
2023-04-24T22:51:35.358Z,0.77
2023-04-24T22:54:04.838Z,0.73
2023-04-24T22:56:32.189Z,0.63
2023-04-24T22:58:59.234Z,0.80
2023-04-24T23:01:29.512Z,1.00
2023-04-24T23:03:56.301Z,0.68
2023-04-24T23:06:23.218Z,0.70
2023-04-24T23:08:50.019Z,0.65
2023-04-24T23:11:17.109Z,0.63
2023-04-24T23:13:44.385Z,0.70
2023-04-24T23:16:11.139Z,0.70
2023-04-24T23:18:37.921Z,0.80
2023-04-24T23:21:04.799Z,0.63
2023-04-24T23:23:31.410Z,0.50
2023-04-24T23:25:58.659Z,0.82
2023-04-24T23:28:26.354Z,0.77
2023-04-24T23:30:53.070Z,0.70
2023-04-24T23:33:19.898Z,0.75
2023-04-24T23:35:46.644Z,0.60
2023-04-24T23:38:13.327Z,0.68
2023-04-24T23:40:40.048Z,0.70
2023-04-24T23:43:08.183Z,0.90
2023-04-24T23:45:36.018Z,0.60
2023-04-24T23:48:04.160Z,0.60
2023-04-24T23:50:30.909Z,0.70
2023-04-24T23:52:57.799Z,0.90
2023-04-24T23:55:24.633Z,0.68
2023-04-24T23:57:51.468Z,0.73
